Weather reports worldwide

Advertisment
Venezia Lido, Italy (16101): temperature & dewpoint: 16.01.2019 04:00:00 - 22.01.2019 04:00:00 (CET)Venezia Lido, Italy (16101): wind speed: 16.01.2019 04:00:00 - 22.01.2019 04:00:00 (CET)Venezia Lido, Italy (16101): wind direction: 16.01.2019 04:00:00 - 22.01.2019 04:00:00 (CET)Venezia Lido, Italy (16101): reduced air pressure: 16.01.2019 04:00:00 - 22.01.2019 04:00:00 (CET)Venezia Lido, Italy (16101): precipitation: 16.01.2019 04:00:00 - 22.01.2019 04:00:00 (CET)
Date & Time tt [°C] td [°C] ff [km/h] ff [kn] dd ppp [hPa] rr [mm]
22.01.2019 04:00:00 - - - - - - -
22.01.2019 03:00:00 -2,0 -4,9 8 4 NE 1014,0 -
22.01.2019 02:00:00 -1,7 -4,9 9 5 NE 1014,5 -
22.01.2019 01:00:00 -1,8 -4,7 9 5 NE 1015,2 0,0
22.01.2019 00:00:00 -1,5 -4,5 8 4 ENE 1015,6 -
21.01.2019 23:00:00 -1,1 -4,7 11 6 ENE 1015,7 -
21.01.2019 22:00:00 -0,2 -4,7 13 7 ENE 1016,0 -
21.01.2019 21:00:00 0,4 -4,3 13 7 ENE 1016,0 -
21.01.2019 20:00:00 0,6 -4,3 13 7 ENE 1016,2 -
21.01.2019 19:00:00 1,0 -3,7 13 7 ENE 1016,2 0,0
21.01.2019 18:00:00 1,6 -3,2 9 5 ENE 1016,2 -
21.01.2019 17:00:00 2,5 -3,9 11 6 E 1016,1 -
21.01.2019 16:00:00 3,3 -2,3 11 6 ENE 1016,2 -
21.01.2019 15:00:00 3,8 -2,5 9 5 ENE 1016,2 -
21.01.2019 14:00:00 4,0 -2,7 15 8 E 1016,6 -
21.01.2019 13:00:00 3,9 -2,4 16 9 E 1017,2 0,0
21.01.2019 12:00:00 2,3 -3,1 18 10 ENE 1017,7 -
21.01.2019 11:00:00 1,7 -3,3 18 10 ENE 1018,2 -
21.01.2019 10:00:00 0,0 -3,6 11 6 ENE 1017,9 -
21.01.2019 09:00:00 -0,5 -3,6 11 6 NE 1017,6 -
21.01.2019 08:00:00 -0,7 -3,8 9 5 NE 1017,3 -
21.01.2019 07:00:00 -1,0 -3,6 5 3 NE 1017,2 0,0
21.01.2019 06:00:00 -1,0 -3,6 5 3 NNE 1016,9 -
21.01.2019 05:00:00 -1,1 -3,7 5 3 NE 1016,9 -
21.01.2019 04:00:00 -1,1 -3,3 5 3 NNE 1017,0 -
21.01.2019 03:00:00 -0,9 -3,1 4 2 NE 1017,3 -
21.01.2019 02:00:00 -0,9 -3,3 5 3 NE 1017,1 -
21.01.2019 01:00:00 -0,4 -3,0 4 2 NE 1017,3 0,0
21.01.2019 00:00:00 0,2 -3,1 4 2 N 1017,8 -
20.01.2019 23:00:00 0,7 -2,7 2 1 N 1017,5 -
20.01.2019 22:00:00 0,8 -3,4 4 2 N 1017,2 -
20.01.2019 21:00:00 1,1 -3,6 2 1 NW 1016,8 -
20.01.2019 20:00:00 1,1 -2,9 5 3 WNW 1016,7 -
20.01.2019 19:00:00 1,2 -3,0 4 2 W 1016,3 -
20.01.2019 18:00:00 1,3 -3,4 4 2 W 1015,9 -
20.01.2019 17:00:00 1,8 -2,0 5 3 W 1015,7 -
20.01.2019 16:00:00 3,0 -4,1 4 2 W 1015,4 -
20.01.2019 15:00:00 3,8 -2,9 4 2 SW 1015,3 -
20.01.2019 14:00:00 4,7 -3,4 2 1 WSW 1015,6 -
20.01.2019 13:00:00 1,9 -3,9 8 4 E 1015,9 0,0
20.01.2019 12:00:00 1,2 -3,0 8 4 ENE 1016,3 -
20.01.2019 11:00:00 -0,2 -4,3 9 5 ENE 1016,6 -
20.01.2019 10:00:00 -0,8 -3,7 9 5 E 1016,1 -
20.01.2019 09:00:00 -1,8 -3,4 8 4 ENE 1015,5 -
20.01.2019 08:00:00 -3,6 -5,3 4 2 NE 1015,2 -
20.01.2019 07:00:00 -3,3 -4,7 5 3 N 1015,1 0,0
20.01.2019 06:00:00 -3,3 -4,9 8 4 N 1015,1 -
20.01.2019 05:00:00 -2,8 -5,2 5 3 NNE 1015,2 -
20.01.2019 04:00:00 -2,2 -5,2 4 2 NE 1015,3 -
20.01.2019 03:00:00 -1,8 -4,3 4 2 NE 1015,5 -
20.01.2019 02:00:00 -1,5 -4,4 4 2 NE 1015,7 -
20.01.2019 01:00:00 -1,0 -4,6 5 3 ENE 1015,8 0,0
20.01.2019 00:00:00 -0,7 -3,6 9 5 ENE 1016,1 -
19.01.2019 23:00:00 -0,7 -3,9 5 3 ENE 1016,3 -
19.01.2019 22:00:00 -0,5 -3,2 5 3 ENE 1016,1 -
19.01.2019 21:00:00 -0,3 -2,9 5 3 ENE 1016,0 -
19.01.2019 20:00:00 -0,2 -3,3 5 3 ENE 1016,0 -
19.01.2019 19:00:00 0,2 -2,6 0 0 N 1016,1 0,0
19.01.2019 18:00:00 0,5 -2,9 0 0 N 1016,2 -
19.01.2019 17:00:00 1,4 -3,0 0 0 N 1016,0 -
19.01.2019 16:00:00 2,5 -3,1 5 3 ENE 1016,1 -
19.01.2019 15:00:00 2,7 -3,1 13 7 E 1016,2 -
19.01.2019 14:00:00 2,2 -3,0 13 7 ENE 1016,6 -
19.01.2019 13:00:00 1,9 -2,7 13 7 ENE 1017,2 0,0
19.01.2019 12:00:00 1,7 -2,7 11 6 ENE 1017,8 -
19.01.2019 11:00:00 1,4 -2,8 15 8 E 1018,1 -
19.01.2019 10:00:00 0,9 -2,9 18 10 E 1017,7 -
19.01.2019 09:00:00 0,6 -3,2 21 11 E 1017,4 -
19.01.2019 08:00:00 0,4 -3,2 22 12 E 1016,9 -
19.01.2019 07:00:00 0,7 -3,1 22 12 E 1017,0 0,0
19.01.2019 06:00:00 0,9 -2,9 24 13 E 1017,0 -
19.01.2019 05:00:00 0,9 -3,5 21 11 ENE 1017,3 -
19.01.2019 04:00:00 0,9 -3,5 26 14 E 1017,5 -
19.01.2019 03:00:00 1,0 -3,4 24 13 E 1017,9 -
19.01.2019 02:00:00 1,2 -3,7 26 14 E 1017,7 -
19.01.2019 01:00:00 1,7 -3,5 31 17 E 1017,7 0,0
19.01.2019 00:00:00 1,8 -2,8 26 14 E 1018,1 -
18.01.2019 23:00:00 2,0 -2,4 26 14 E 1017,9 -
18.01.2019 22:00:00 2,2 -1,1 24 13 E 1017,4 -
18.01.2019 21:00:00 2,4 -0,1 24 13 E 1017,0 -
18.01.2019 20:00:00 2,1 0,3 28 15 E 1016,9 -
18.01.2019 19:00:00 2,1 0,6 28 15 E 1016,6 -
18.01.2019 18:00:00 2,2 0,2 28 15 E 1015,9 -
18.01.2019 17:00:00 4,0 -0,1 26 14 E 1015,5 -
18.01.2019 16:00:00 3,9 0,0 34 18 E 1014,7 -
18.01.2019 15:00:00 4,2 1,0 35 19 E 1014,1 -
18.01.2019 14:00:00 4,1 1,9 34 18 E 1013,7 -
18.01.2019 13:00:00 3,7 2,2 21 11 E 1013,9 0,0
18.01.2019 12:00:00 3,7 2,3 15 8 E 1013,7 -
18.01.2019 11:00:00 4,0 2,6 2 1 ENE 1013,2 -
18.01.2019 10:00:00 3,6 2,2 0 0 N 1012,2 -
18.01.2019 09:00:00 3,2 1,9 0 0 N 1011,3 -
18.01.2019 08:00:00 3,1 1,8 0 0 N 1010,3 -
18.01.2019 07:00:00 3,1 1,8 0 0 N 1009,4 -
18.01.2019 06:00:00 3,1 1,8 0 0 N 1008,9 -
18.01.2019 05:00:00 3,0 1,7 0 0 N 1008,6 -
18.01.2019 04:00:00 2,8 1,5 0 0 N 1009,0 -
18.01.2019 03:00:00 2,7 1,4 0 0 N 1009,0 -
18.01.2019 02:00:00 2,8 1,5 0 0 N 1009,3 -
18.01.2019 01:00:00 2,8 1,5 0 0 N 1009,6 -
18.01.2019 00:00:00 3,2 1,9 0 0 N 1010,3 -
17.01.2019 23:00:00 3,1 1,8 8 4 E 1010,6 -
17.01.2019 22:00:00 3,2 1,9 4 2 ENE 1010,9 -
17.01.2019 21:00:00 2,9 1,4 4 2 ENE 1011,3 -
17.01.2019 20:00:00 3,4 1,9 5 3 ENE 1011,7 -
17.01.2019 19:00:00 3,7 2,0 0 0 N 1011,9 0,0
17.01.2019 18:00:00 4,0 2,5 0 0 N 1012,2 -
17.01.2019 17:00:00 4,4 2,1 0 0 N 1012,4 -
17.01.2019 16:00:00 5,1 2,6 2 1 ENE 1012,7 -
17.01.2019 15:00:00 5,3 2,3 4 2 ENE 1013,2 -
17.01.2019 14:00:00 5,1 2,8 2 1 ENE 1013,8 -
17.01.2019 13:00:00 3,8 2,0 0 0 N 1014,4 0,0
17.01.2019 12:00:00 3,5 2,0 0 0 N 1015,6 -
17.01.2019 11:00:00 2,7 1,2 4 2 E 1016,3 -
17.01.2019 10:00:00 1,8 0,3 4 2 E 1016,1 -
17.01.2019 09:00:00 1,2 -0,3 0 0 N 1015,8 -
17.01.2019 08:00:00 1,0 -0,5 0 0 N 1016,1 -
17.01.2019 07:00:00 0,6 -0,9 0 0 N 1016,3 0,0
17.01.2019 06:00:00 0,3 -1,2 0 0 N 1016,2 -
17.01.2019 05:00:00 -0,2 -1,7 0 0 N 1016,5 -
17.01.2019 04:00:00 -0,8 -2,3 0 0 N 1017,2 -
17.01.2019 03:00:00 -1,3 -2,8 0 0 N 1017,8 -
17.01.2019 02:00:00 0,6 -0,9 0 0 N 1018,0 -
17.01.2019 01:00:00 0,7 -0,6 2 1 E 1018,4 0,0
17.01.2019 00:00:00 0,3 -1,0 0 0 N 1018,9 -
16.01.2019 23:00:00 -0,1 -1,4 0 0 N 1019,1 -
16.01.2019 22:00:00 -1,2 -2,7 0 0 N 1019,2 -
16.01.2019 21:00:00 -0,4 -1,9 0 0 N 1018,9 -
16.01.2019 20:00:00 0,6 -0,9 0 0 N 1019,1 -
16.01.2019 19:00:00 0,4 -1,1 0 0 N 1019,1 0,0
16.01.2019 18:00:00 0,0 -3,1 2 1 SE 1019,0 -
16.01.2019 17:00:00 2,6 -0,7 4 2 S 1018,9 -
16.01.2019 16:00:00 4,2 -0,3 8 4 S 1018,9 -
16.01.2019 15:00:00 5,0 -2,4 8 4 SSW 1018,8 -
16.01.2019 14:00:00 6,2 -3,3 8 4 SSW 1019,0 -
16.01.2019 13:00:00 6,8 -3,6 4 2 WNW 1019,4 0,0
16.01.2019 12:00:00 5,4 -1,8 4 2 WNW 1020,0 -
16.01.2019 11:00:00 3,6 -0,5 4 2 W 1020,8 -
16.01.2019 10:00:00 1,6 0,0 4 2 W 1020,7 -
16.01.2019 09:00:00 -1,2 -2,7 4 2 W 1020,1 -
16.01.2019 08:00:00 -3,1 -4,8 4 2 WNW 1019,7 -
16.01.2019 07:00:00 -3,7 -6,5 2 1 NW 1019,6 0,0
16.01.2019 06:00:00 -1,8 -4,0 5 3 N 1019,4 -
16.01.2019 05:00:00 -2,6 -5,0 4 2 N 1019,5 -
16.01.2019 04:00:00 -2,3 -4,4 5 3 NNE 1019,7 -

tt = temperature
td = dewpoint
ff = wind speed
dd = wind direction
ppp = reduced air pressure
rr = precipitation

Next stations